Time;durP1;ratioP1;P1;durP2;ratioP2;P2;SDS_P1;SDS_P2;PMS_P1;PMS_P2;Temp;Humidity;BMP_temperature;BMP_pressure;BME280_temperature;BME280_humidity;BME280_pressure;Samples;Min_cycle;Max_cycle;Signal;HPM_P1;HPM_P2
2021/05/24 00:00:11;;;;;;;1.35;0.90;;;;;;;10.87;70.61;98001.63;6297090;22;20469;-79
2021/05/24 00:02:39;;;;;;;3.60;0.80;;;;;;;10.36;72.12;98012.94;6297975;22;20094;-78
2021/05/24 00:05:09;;;;;;;1.77;0.93;;;;;;;10.38;71.58;98013.75;6296264;22;20462;-77
2021/05/24 00:07:36;;;;;;;2.17;1.40;;;;;;;10.48;71.84;98015.16;6272432;22;20023;-78
2021/05/24 00:10:06;;;;;;;5.55;2.65;;;;;;;10.32;72.18;98007.88;6296100;22;20031;-78
2021/05/24 00:12:33;;;;;;;4.43;2.70;;;;;;;10.64;71.57;98004.19;6298220;22;20023;-78
2021/05/24 00:15:00;;;;;;;4.70;3.58;;;;;;;10.37;72.40;98006.81;6296240;22;20023;-79
2021/05/24 00:17:30;;;;;;;7.13;4.97;;;;;;;10.23;72.71;98013.41;6302203;22;20030;-79
2021/05/24 00:19:57;;;;;;;8.50;6.63;;;;;;;10.52;71.64;98002.00;6269997;22;20473;-79
2021/05/24 00:22:24;;;;;;;7.60;6.50;;;;;;;10.74;70.75;98006.41;6303110;22;20023;-78
2021/05/24 00:24:51;;;;;;;10.48;7.28;;;;;;;10.77;70.63;98010.69;6302697;22;20094;-77
2021/05/24 00:27:18;;;;;;;10.38;5.95;;;;;;;10.70;70.96;98014.41;6269294;22;20023;-78
2021/05/24 00:29:45;;;;;;;6.57;4.72;;;;;;;10.78;70.19;98008.03;6247250;22;20046;-78
2021/05/24 00:32:41;;;;;;;4.80;3.17;;;;;;;10.86;69.63;98005.13;5062413;27;20406;-77
2021/05/24 00:35:09;;;;;;;9.82;3.10;;;;;;;10.57;70.48;98014.00;5050830;28;20042;-78
2021/05/24 00:37:37;;;;;;;4.95;3.08;;;;;;;10.64;69.88;98015.50;5044735;28;20151;-78
2021/05/24 00:40:05;;;;;;;5.90;3.22;;;;;;;10.80;69.98;98002.72;5021512;28;20050;-78
2021/05/24 00:42:33;;;;;;;5.68;2.78;;;;;;;10.50;70.63;98002.88;5029699;28;20069;-78
2021/05/24 00:45:01;;;;;;;7.00;3.47;;;;;;;10.59;70.78;98013.94;5018890;28;20955;-78
2021/05/24 00:47:29;;;;;;;5.22;3.30;;;;;;;10.54;70.95;98000.19;5018781;28;20060;-79
2021/05/24 00:49:58;;;;;;;7.57;3.05;;;;;;;10.68;70.96;98000.56;5019539;28;20449;-78
2021/05/24 00:52:25;;;;;;;6.28;2.97;;;;;;;10.64;70.58;98001.59;5056968;28;20049;-79
2021/05/24 00:54:52;;;;;;;8.98;3.30;;;;;;;10.87;69.73;97999.88;5039402;28;20410;-78
2021/05/24 00:57:19;;;;;;;7.13;3.15;;;;;;;10.50;70.26;97996.84;5032113;28;20146;-79
2021/05/24 00:59:46;;;;;;;8.52;3.38;;;;;;;10.73;70.29;97998.66;5018951;28;20468;-79
2021/05/24 01:02:13;;;;;;;9.25;3.35;;;;;;;10.67;70.76;98001.47;5026610;28;20444;-78
2021/05/24 01:04:40;;;;;;;4.75;2.85;;;;;;;10.54;71.47;98002.81;5015445;28;20046;-78
2021/05/24 01:07:08;;;;;;;7.82;3.67;;;;;;;10.40;71.79;97996.31;5014150;28;20171;-78
2021/05/24 01:09:36;;;;;;;4.60;2.95;;;;;;;10.42;72.45;97997.09;5029076;28;20124;-78
2021/05/24 01:12:03;;;;;;;5.05;3.80;;;;;;;10.21;73.03;98000.44;5015096;28;20057;-79
2021/05/24 01:14:30;;;;;;;8.55;3.40;;;;;;;10.56;72.32;97998.38;5025455;28;20060;-79
2021/05/24 01:16:57;;;;;;;4.05;3.38;;;;;;;10.41;72.58;98000.59;5034206;28;20050;-79
2021/05/24 01:19:24;;;;;;;4.57;3.58;;;;;;;10.61;71.68;97996.44;5028257;28;20042;-79
2021/05/24 01:21:52;;;;;;;7.25;4.43;;;;;;;10.59;71.38;97990.44;5019057;28;20445;-79
2021/05/24 01:24:20;;;;;;;7.68;3.80;;;;;;;10.84;70.86;98001.72;5019809;28;20045;-79
2021/05/24 01:26:48;;;;;;;6.85;4.28;;;;;;;10.52;71.88;98002.00;5035611;28;20075;-78
2021/05/24 01:30:13;;;;;;;6.13;3.53;;;;;;;10.18;72.20;97995.28;5083516;27;20441;-79
2021/05/24 01:32:41;;;;;;;9.02;3.83;;;;;;;9.82;73.62;97996.44;5082370;28;20048;-78
2021/05/24 01:35:09;;;;;;;9.95;3.40;;;;;;;9.84;73.35;97990.28;5074472;28;20059;-79
2021/05/24 01:37:36;;;;;;;5.18;3.25;;;;;;;10.34;71.97;97988.66;5086800;28;20079;-79
2021/05/24 01:40:05;;;;;;;9.07;3.22;;;;;;;10.10;71.74;97999.88;5061684;28;20091;-77
2021/05/24 01:42:33;;;;;;;8.10;3.67;;;;;;;10.05;73.27;98002.66;5076682;28;20079;-77
2021/05/24 01:45:00;;;;;;;9.32;4.03;;;;;;;10.23;71.55;97998.59;5081836;27;20109;-78
2021/05/24 01:47:27;;;;;;;7.18;3.42;;;;;;;9.89;72.34;97993.59;5084003;27;20151;-78
2021/05/24 01:49:54;;;;;;;11.27;4.00;;;;;;;9.88;72.81;97991.06;5081058;28;20053;-78
2021/05/24 01:52:21;;;;;;;11.35;3.80;;;;;;;10.03;72.11;97994.00;5065203;28;20071;-78
2021/05/24 01:54:48;;;;;;;7.25;3.38;;;;;;;9.76;72.63;97986.22;5077192;28;20060;-78
2021/05/24 01:59:36;;;;;;;13.10;3.45;;;;;;;9.56;73.15;97997.25;5090646;27;20844;-78
2021/05/24 02:02:04;;;;;;;6.30;3.03;;;;;;;9.76;72.79;97987.06;5063077;28;20050;-76
2021/05/24 02:04:34;;;;;;;7.57;3.13;;;;;;;9.63;73.35;97984.00;5084830;28;20046;-78
2021/05/24 02:07:02;;;;;;;7.85;3.22;;;;;;;9.33;74.71;97981.44;5062718;28;20653;-77
2021/05/24 02:09:29;;;;;;;11.57;3.47;;;;;;;9.32;74.48;97978.00;5076758;28;20102;-78
2021/05/24 02:11:56;;;;;;;12.82;3.63;;;;;;;9.51;73.81;97973.94;5095742;28;20186;-78
2021/05/24 02:14:24;;;;;;;10.13;3.55;;;;;;;9.14;74.69;97968.97;5059725;28;20057;-78
2021/05/24 02:16:51;;;;;;;7.85;2.55;;;;;;;9.46;74.26;97978.44;5078996;28;20059;-78
2021/05/24 02:19:20;;;;;;;11.60;3.88;;;;;;;9.63;73.56;97973.56;5076161;27;20047;-78
2021/05/24 02:21:47;;;;;;;15.25;2.78;;;;;;;9.24;74.46;97972.16;5095524;28;20056;-78
2021/05/24 02:24:16;;;;;;;12.90;3.53;;;;;;;9.31;74.19;97971.06;5064058;28;20080;-79
2021/05/24 02:26:44;;;;;;;11.32;3.65;;;;;;;9.40;73.84;97973.38;5060097;28;20058;-78
2021/05/24 02:31:11;;;;;;;18.02;3.45;;;;;;;9.13;74.98;97984.63;5058915;27;20134;-78
2021/05/24 02:33:38;;;;;;;6.85;3.10;;;;;;;9.16;74.84;97984.53;5059377;28;20075;-78
2021/05/24 02:36:05;;;;;;;6.63;3.33;;;;;;;9.04;75.77;97977.94;5041956;28;20075;-77
2021/05/24 02:38:32;;;;;;;7.95;3.33;;;;;;;8.80;76.40;97983.00;5074395;28;20442;-78
2021/05/24 02:41:03;;;;;;;10.55;3.20;;;;;;;9.19;75.18;97979.25;5050059;28;20048;-78
2021/05/24 02:43:30;;;;;;;12.32;3.83;;;;;;;9.13;75.89;97985.50;5056291;28;20103;-78
2021/05/24 02:45:57;;;;;;;11.10;4.18;;;;;;;9.41;74.42;97997.69;5059040;28;20067;-78
2021/05/24 02:48:24;;;;;;;7.40;2.65;;;;;;;8.88;76.03;97992.28;5058431;28;20056;-78
2021/05/24 02:50:54;;;;;;;9.90;3.38;;;;;;;9.31;74.22;97994.50;5045121;28;20049;-78
2021/05/24 02:53:21;;;;;;;9.30;3.13;;;;;;;9.47;73.21;97998.38;5056622;28;20052;-78
2021/05/24 02:55:48;;;;;;;10.77;2.97;;;;;;;9.27;74.08;97985.09;5046861;28;20053;-78
2021/05/24 03:21:26;;;;;;;;;;;;;;;;;;;;;
2021/05/24 03:29:47;;;;;;;12.10;3.67;;;;;;;9.32;74.21;98009.25;5868762;24;20167;-78
2021/05/24 03:51:31;;;;;;;12.18;4.03;;;;;;;9.27;73.79;98029.38;4877548;22;27823910;-78
2021/05/24 03:55:29;;;;;;;10.77;4.20;;;;;;;8.72;75.99;98024.88;5987302;23;20032;-77
2021/05/24 04:02:47;;;;;;;15.38;4.05;;;;;;;9.14;74.82;98022.81;5639915;24;20119;-77
2021/05/24 04:06:24;;;;;;;18.60;4.50;;;;;;;8.89;75.69;98020.03;5598141;24;20029;-78
2021/05/24 04:23:58;;;;;;;;;;;;;;;;;;;;;
2021/05/24 04:26:52;;;;;;;13.50;3.80;;;;;;;11.02;68.89;98037.66;5927173;23;20028;-78
2021/05/24 04:29:19;;;;;;;12.00;2.78;;;;;;;10.91;68.14;98042.41;6053637;23;20021;-78
2021/05/24 04:31:46;;;;;;;13.07;2.65;;;;;;;11.45;66.58;98047.41;6128774;23;20025;-78
2021/05/24 04:34:13;;;;;;;11.80;2.53;;;;;;;10.44;68.78;98051.88;6075980;23;20077;-78
2021/05/24 04:36:40;;;;;;;9.02;2.50;;;;;;;10.98;67.60;98058.72;6103824;23;20053;-78
2021/05/24 04:39:07;;;;;;;10.75;2.95;;;;;;;10.54;68.16;98061.09;6099362;23;20457;-78
2021/05/24 04:41:36;;;;;;;6.43;2.55;;;;;;;10.65;67.96;98069.41;6129117;23;20045;-78
2021/05/24 04:47:00;;;;;;;10.57;3.58;;;;;;;10.17;69.90;98060.59;6064959;23;20026;-78
2021/05/24 04:49:27;;;;;;;15.82;3.20;;;;;;;11.12;67.95;98053.88;6048209;23;20046;-78
2021/05/24 04:51:54;;;;;;;16.45;2.88;;;;;;;11.59;66.34;98067.81;6043328;23;20034;-78
2021/05/24 04:54:20;;;;;;;11.65;2.65;;;;;;;12.80;62.90;98059.50;6099771;23;20086;-78
2021/05/24 04:56:47;;;;;;;10.88;2.17;;;;;;;13.68;59.50;98058.22;6126134;23;20497;-77
2021/05/24 04:59:15;;;;;;;9.23;2.30;;;;;;;14.56;57.20;98070.66;6124608;23;20032;-77
2021/05/24 05:01:44;;;;;;;11.70;3.45;;;;;;;14.67;55.05;98068.34;6102253;23;20032;-78
2021/05/24 05:04:11;;;;;;;7.80;2.30;;;;;;;14.45;55.43;98065.06;6124046;23;20030;-77
2021/05/24 05:06:38;;;;;;;10.93;2.40;;;;;;;14.16;55.92;98074.31;6100705;23;20081;-77
2021/05/24 05:09:08;;;;;;;9.50;2.53;;;;;;;14.09;56.14;98080.78;6124532;23;20474;-75
2021/05/24 05:11:35;;;;;;;11.43;2.58;;;;;;;14.29;55.73;98083.28;6100379;23;20048;-76
2021/05/24 05:14:05;;;;;;;5.55;2.22;;;;;;;14.15;56.21;98083.09;6124388;23;20104;-76
2021/05/24 05:16:32;;;;;;;9.70;2.55;;;;;;;14.79;54.16;98080.88;6128855;23;20030;-77
2021/05/24 05:18:58;;;;;;;11.77;2.17;;;;;;;16.26;52.02;98085.31;6122274;23;20539;-77
2021/05/24 05:21:25;;;;;;;12.40;2.47;;;;;;;15.97;50.83;98089.56;6121983;23;20087;-78
2021/05/24 05:23:52;;;;;;;13.50;2.72;;;;;;;16.43;49.13;98098.41;6150575;23;20104;-79
2021/05/24 05:26:19;;;;;;;15.57;3.75;;;;;;;17.19;46.87;98101.06;6150067;23;20017;-78
2021/05/24 05:28:46;;;;;;;10.02;2.63;;;;;;;15.62;50.50;98091.50;6179582;23;20047;-76
2021/05/24 05:31:14;;;;;;;9.43;2.10;;;;;;;15.68;50.71;98099.03;6176571;23;20029;-76
2021/05/24 05:33:42;;;;;;;8.45;2.60;;;;;;;15.48;51.07;98098.38;6177479;23;20404;-77
2021/05/24 05:36:10;;;;;;;10.32;2.88;;;;;;;14.31;54.83;98106.88;6176932;23;20539;-77
2021/05/24 05:38:38;;;;;;;11.20;2.95;;;;;;;14.21;55.50;98108.22;6153595;23;20028;-77
2021/05/24 05:41:05;;;;;;;11.02;3.30;;;;;;;14.21;56.49;98114.34;6152135;23;20120;-77
2021/05/24 05:46:00;;;;;;;7.65;2.42;;;;;;;15.88;50.50;98120.81;5062994;27;20134;-78
2021/05/24 05:48:27;;;;;;;9.70;2.45;;;;;;;16.86;47.66;98122.38;5055351;28;20052;-76
2021/05/24 05:50:55;;;;;;;7.18;1.80;;;;;;;17.63;45.07;98135.41;5060502;28;20533;-78
2021/05/24 05:53:22;;;;;;;7.80;2.55;;;;;;;18.33;43.48;98138.94;5077159;28;20118;-78
2021/05/24 05:55:49;;;;;;;8.60;2.15;;;;;;;17.57;46.87;98144.50;5069212;28;20057;-78
2021/05/24 05:58:15;;;;;;;11.07;3.00;;;;;;;16.40;48.52;98139.94;5072631;28;20048;-78
2021/05/24 06:00:42;;;;;;;11.85;2.33;;;;;;;15.94;49.40;98134.53;5073281;28;20106;-77
2021/05/24 06:03:15;;;;;;;12.23;2.50;;;;;;;16.13;51.81;98132.59;5072994;28;20052;-77
2021/05/24 06:05:42;;;;;;;8.63;2.15;;;;;;;17.07;47.97;98142.25;5072046;28;20053;-78
2021/05/24 06:08:09;;;;;;;15.70;2.53;;;;;;;17.09;48.32;98140.34;5075147;28;20117;-78
2021/05/24 06:10:36;;;;;;;13.40;2.85;;;;;;;16.46;47.46;98134.28;5061971;28;20047;-76
2021/05/24 06:13:03;;;;;;;10.57;3.20;;;;;;;17.79;46.70;98141.47;5077425;28;20044;-76
2021/05/24 06:15:30;;;;;;;9.38;2.50;;;;;;;18.62;42.25;98132.69;5080285;28;20472;-78
2021/05/24 06:17:57;;;;;;;9.15;2.42;;;;;;;19.58;41.61;98137.72;5072271;28;20044;-77
2021/05/24 06:20:24;;;;;;;5.07;1.75;;;;;;;20.33;39.54;98141.31;5067872;28;20051;-79
2021/05/24 06:22:51;;;;;;;8.68;2.30;;;;;;;20.88;38.12;98154.91;5066343;28;20048;-78
2021/05/24 06:25:19;;;;;;;6.47;1.98;;;;;;;21.49;36.14;98150.34;5066791;28;20064;-79
2021/05/24 06:27:49;;;;;;;6.85;1.70;;;;;;;21.65;36.44;98150.03;5070751;28;20057;-78
2021/05/24 06:30:17;;;;;;;6.72;1.90;;;;;;;21.89;35.75;98148.13;5042491;28;20149;-77
2021/05/24 06:32:44;;;;;;;7.95;2.30;;;;;;;22.85;34.81;98161.78;5054228;28;20057;-77
2021/05/24 06:35:11;;;;;;;5.45;1.73;;;;;;;23.89;32.92;98160.09;5067789;28;20059;-78
2021/05/24 06:37:38;;;;;;;8.35;2.35;;;;;;;23.24;32.83;98173.63;5093460;28;20105;-77
2021/05/24 06:40:06;;;;;;;7.45;2.47;;;;;;;23.58;32.67;98164.53;5063694;28;20044;-80
2021/05/24 06:42:33;;;;;;;6.72;2.22;;;;;;;23.13;32.22;98165.69;5063203;28;20156;-79
2021/05/24 06:45:00;;;;;;;6.07;1.70;;;;;;;24.13;31.38;98163.31;5073225;28;20102;-77
2021/05/24 06:47:27;;;;;;;6.25;2.08;;;;;;;23.58;32.54;98159.22;5073924;28;20040;-79
2021/05/24 06:49:55;;;;;;;9.40;1.95;;;;;;;24.31;31.27;98167.09;5072716;28;20087;-78
2021/05/24 06:52:22;;;;;;;7.50;2.35;;;;;;;25.08;29.14;98166.47;5062877;28;20115;-78
2021/05/24 06:54:49;;;;;;;9.30;2.42;;;;;;;25.07;30.32;98162.09;5071917;28;20076;-78
2021/05/24 06:57:16;;;;;;;7.20;2.50;;;;;;;26.69;27.68;98170.81;5056251;28;20045;-79
2021/05/24 06:59:43;;;;;;;6.30;1.73;;;;;;;26.14;27.59;98171.75;5041107;28;20070;-79
2021/05/24 07:02:10;;;;;;;7.05;1.70;;;;;;;26.21;28.45;98172.81;5057523;28;20053;-78
2021/05/24 07:04:37;;;;;;;6.18;1.60;;;;;;;25.23;28.53;98170.41;5058502;28;20095;-79
2021/05/24 07:07:06;;;;;;;5.85;1.75;;;;;;;24.77;29.08;98171.88;5056140;28;20444;-79
2021/05/24 07:09:33;;;;;;;11.93;2.05;;;;;;;24.62;28.80;98167.03;5051542;28;20098;-79
2021/05/24 07:12:00;;;;;;;11.98;2.25;;;;;;;23.66;30.58;98175.41;5051241;28;20045;-80
2021/05/24 07:14:28;;;;;;;8.10;2.28;;;;;;;26.96;26.96;98194.09;5038385;28;20910;-79
2021/05/24 07:16:55;;;;;;;7.22;2.05;;;;;;;27.00;26.46;98186.63;5059803;28;20059;-80
2021/05/24 07:19:22;;;;;;;7.68;2.17;;;;;;;27.76;24.95;98187.88;5077531;28;20098;-79
2021/05/24 07:21:49;;;;;;;11.65;2.05;;;;;;;27.43;24.61;98191.25;5065249;28;20131;-80
2021/05/24 07:24:16;;;;;;;13.50;2.17;;;;;;;28.60;24.27;98190.75;5060382;28;20048;-80
2021/05/24 07:26:56;;;;;;;7.47;2.10;;;;;;;29.50;22.75;98191.91;5049828;28;20086;-81
2021/05/24 07:29:23;;;;;;;8.68;2.30;;;;;;;31.05;20.24;98191.47;5064942;28;20056;-81
2021/05/24 07:31:52;;;;;;;10.00;2.35;;;;;;;30.09;21.67;98180.78;5054968;28;20063;-85
2021/05/24 07:34:19;;;;;;;11.32;2.42;;;;;;;28.44;22.81;98183.44;5043979;28;20044;-84
2021/05/24 07:36:46;;;;;;;11.45;2.70;;;;;;;29.67;21.55;98190.91;5037912;28;20060;-83
2021/05/24 07:39:13;;;;;;;8.88;2.28;;;;;;;29.64;20.85;98189.38;5049242;28;21044;-87
2021/05/24 07:41:40;;;;;;;5.80;2.17;;;;;;;31.99;19.69;98200.06;5067697;28;20051;-89
2021/05/24 07:44:07;;;;;;;5.93;1.90;;;;;;;32.18;19.11;98198.75;5065015;28;20491;-85
2021/05/24 07:46:34;;;;;;;10.60;2.50;;;;;;;30.67;21.18;98201.22;5046305;28;20518;-81
2021/05/24 07:49:01;;;;;;;8.20;1.95;;;;;;;30.58;20.74;98199.56;5062581;28;20039;-85
2021/05/24 07:51:30;;;;;;;7.50;1.92;;;;;;;30.43;20.57;98206.66;5071545;28;20054;-82
2021/05/24 07:53:57;;;;;;;9.20;2.88;;;;;;;32.18;19.58;98206.03;5064807;28;20044;-80
2021/05/24 07:56:24;;;;;;;6.82;1.92;;;;;;;32.19;18.07;98204.97;5056091;28;20044;-85
2021/05/24 07:58:52;;;;;;;7.45;2.40;;;;;;;30.26;20.04;98200.47;5072495;28;20060;-81
2021/05/24 08:01:19;;;;;;;9.57;2.47;;;;;;;30.69;20.33;98204.59;5047822;28;20048;-84
2021/05/24 08:03:45;;;;;;;8.32;2.20;;;;;;;31.62;19.27;98213.56;5058646;28;20052;-86
2021/05/24 08:06:14;;;;;;;8.77;2.25;;;;;;;33.31;17.19;98210.09;5067141;28;20056;-85
2021/05/24 08:08:42;;;;;;;9.30;2.25;;;;;;;32.30;18.26;98204.53;5066097;28;20045;-84
2021/05/24 08:11:14;;;;;;;5.50;1.88;;;;;;;31.51;18.15;98213.97;5030093;28;20214;-83
2021/05/24 08:13:43;;;;;;;6.00;1.90;;;;;;;29.15;19.95;98201.91;5074815;28;20056;-85
2021/05/24 08:16:13;;;;;;;9.77;2.17;;;;;;;27.18;22.99;98207.09;5059636;28;20044;-82
2021/05/24 08:18:44;;;;;;;11.27;2.33;;;;;;;26.65;24.06;98200.75;5065972;28;20066;-85
2021/05/24 08:21:11;;;;;;;8.13;2.03;;;;;;;27.72;23.07;98203.41;5041698;28;20066;-86
2021/05/24 08:23:43;;;;;;;10.27;2.10;;;;;;;27.84;22.67;98205.84;5062378;28;20056;-88
2021/05/24 08:26:12;;;;;;;7.18;1.85;;;;;;;28.68;21.65;98214.16;5065694;28;20045;-84
2021/05/24 08:28:40;;;;;;;7.75;2.25;;;;;;;30.69;18.72;98213.53;5049176;28;20049;-83
2021/05/24 08:31:09;;;;;;;5.93;1.77;;;;;;;30.84;18.98;98229.78;5070772;28;20407;-81
2021/05/24 08:33:38;;;;;;;5.63;1.73;;;;;;;32.04;18.05;98229.22;5065063;28;20052;-84
2021/05/24 08:36:05;;;;;;;11.93;1.85;;;;;;;32.54;17.21;98235.88;5047689;28;20427;-81
2021/05/24 08:38:35;;;;;;;9.50;2.20;;;;;;;34.64;15.41;98243.63;5077916;28;20048;-81
2021/05/24 08:41:08;;;;;;;7.18;1.98;;;;;;;30.08;18.80;98218.66;5042019;28;20037;-84
2021/05/24 08:43:38;;;;;;;10.45;1.80;;;;;;;25.16;23.67;98209.38;5066390;28;20054;-82
2021/05/24 08:46:05;;;;;;;12.85;2.38;;;;;;;24.31;26.08;98212.47;5063431;28;20536;-81
2021/05/24 08:48:34;;;;;;;9.57;2.60;;;;;;;25.01;25.11;98203.59;5048830;28;20109;-84
2021/05/24 08:51:02;;;;;;;8.73;2.60;;;;;;;26.15;23.57;98216.25;5062368;28;20055;-82
2021/05/24 08:53:29;;;;;;;11.95;2.30;;;;;;;28.14;21.74;98227.78;5065772;28;20144;-82
2021/05/24 08:55:56;;;;;;;6.30;2.00;;;;;;;29.39;20.29;98226.22;5057530;28;20044;-82
2021/05/24 08:58:24;;;;;;;7.38;1.95;;;;;;;30.54;18.73;98227.88;5064341;28;20127;-80
2021/05/24 09:00:51;;;;;;;9.52;1.92;;;;;;;32.37;17.75;98232.53;5042783;28;20045;-81
2021/05/24 09:03:22;;;;;;;11.77;2.30;;;;;;;31.48;17.37;98235.88;5065151;28;20071;-80
2021/05/24 09:05:51;;;;;;;10.05;2.17;;;;;;;29.97;18.32;98227.97;5060749;28;20048;-81
2021/05/24 09:08:18;;;;;;;9.82;2.08;;;;;;;29.06;18.82;98229.78;5026782;28;20424;-81
2021/05/24 09:10:47;;;;;;;9.02;2.10;;;;;;;27.51;20.91;98232.41;5065867;28;20502;-80
2021/05/24 09:13:20;;;;;;;10.60;1.85;;;;;;;25.38;23.79;98225.16;5048613;28;20129;-79
2021/05/24 09:15:47;;;;;;;11.95;2.20;;;;;;;24.31;26.97;98223.16;5050353;28;20048;-81
2021/05/24 09:18:18;;;;;;;18.55;2.88;;;;;;;24.60;26.01;98219.75;5044307;28;20045;-80
2021/05/24 09:20:50;;;;;;;10.63;2.15;;;;;;;26.21;24.51;98229.94;5058412;28;20471;-84
2021/05/24 09:23:25;;;;;;;10.68;2.45;;;;;;;27.04;23.60;98229.06;5062572;28;22242;-82
2021/05/24 09:26:00;;;;;;;6.75;1.95;;;;;;;25.71;24.54;98225.78;5058667;28;20503;-82
2021/05/24 09:28:46;;;;;;;7.38;1.83;;;;;;;26.36;24.11;98224.97;5063569;28;20099;-84
2021/05/24 09:31:20;;;;;;;8.32;1.65;;;;;;;29.84;19.65;98228.41;5065807;28;20059;-83
2021/05/24 09:33:50;;;;;;;11.82;2.10;;;;;;;32.20;17.87;98225.56;5066733;28;20143;-85
2021/05/24 09:36:18;;;;;;;6.20;1.80;;;;;;;34.18;14.43;98237.03;5047520;28;20108;-85
2021/05/24 09:38:46;;;;;;;6.05;1.77;;;;;;;37.51;12.72;98237.81;5054538;28;20045;-84
2021/05/24 09:41:15;;;;;;;9.50;1.65;;;;;;;36.27;12.58;98241.72;5037835;28;20054;-84
2021/05/24 09:48:08;;;;;;;5.93;1.85;;;;;;;35.87;13.76;98243.56;5004065;28;20041;-81
2021/05/24 09:51:37;;;;;;;5.88;1.67;;;;;;;35.64;13.30;98237.63;5008214;28;20099;-85
2021/05/24 09:54:11;;;;;;;4.32;1.80;;;;;;;32.67;15.82;98227.97;4952048;28;20568;-88
2021/05/24 09:56:43;;;;;;;9.30;1.95;;;;;;;32.25;15.97;98218.59;5027250;28;20503;-80
2021/05/24 09:59:13;;;;;;;6.05;1.67;;;;;;;30.81;17.66;98221.22;4988865;28;20097;-79
2021/05/24 10:01:49;;;;;;;7.80;1.85;;;;;;;29.20;19.30;98220.25;5020158;28;20100;-79
2021/05/24 10:04:19;;;;;;;6.10;1.70;;;;;;;27.94;21.15;98211.97;5014837;28;20407;-80
2021/05/24 10:06:50;;;;;;;9.03;2.43;;;;;;;27.97;21.54;98215.19;4990798;28;20587;-80
2021/05/24 10:09:18;;;;;;;6.72;2.25;;;;;;;27.06;21.65;98218.16;5017566;28;20076;-87
2021/05/24 10:11:52;;;;;;;5.00;1.52;;;;;;;27.40;21.79;98212.97;4988561;28;20065;-90
2021/05/24 10:14:22;;;;;;;8.20;2.15;;;;;;;26.84;21.67;98208.69;4997080;28;20055;-83
2021/05/24 10:16:56;;;;;;;7.33;2.07;;;;;;;29.18;20.32;98215.00;5013209;28;20088;-81
2021/05/24 10:19:25;;;;;;;6.38;2.30;;;;;;;30.53;18.79;98212.72;4978097;28;20344;-80
2021/05/24 10:21:54;;;;;;;4.20;1.70;;;;;;;33.94;15.68;98230.97;5005983;28;20125;-81
2021/05/24 10:24:25;;;;;;;7.82;2.05;;;;;;;31.36;16.56;98213.88;5029547;28;20060;-81
2021/05/24 10:26:56;;;;;;;4.38;1.48;;;;;;;29.81;18.96;98211.75;5055120;28;20483;-82
2021/05/24 10:29:24;;;;;;;7.80;2.20;;;;;;;28.16;19.01;98212.34;5048667;28;20144;-78
2021/05/24 10:31:52;;;;;;;4.38;1.38;;;;;;;26.43;21.24;98216.19;5061394;28;20098;-81
2021/05/24 10:34:31;;;;;;;6.93;2.03;;;;;;;26.15;23.00;98214.41;5036956;28;20832;-86
2021/05/24 10:37:23;;;;;;;5.93;1.88;;;;;;;26.34;22.57;98217.06;5006491;28;20088;-82
2021/05/24 10:40:04;;;;;;;10.68;2.10;;;;;;;26.16;23.34;98220.59;5033837;28;21211;-81
2021/05/24 10:42:42;;;;;;;8.25;1.50;;;;;;;24.88;24.44;98212.84;5063379;28;20336;-84
2021/05/24 10:45:24;;;;;;;10.15;2.25;;;;;;;24.09;25.41;98212.59;5067469;28;20033;-80
2021/05/24 10:48:04;;;;;;;6.80;1.90;;;;;;;24.37;24.45;98210.22;5051861;28;20113;-81
2021/05/24 10:51:13;;;;;;;;;;;;;;;;;;;;;
2021/05/24 10:54:39;;;;;;;5.03;2.13;;;;;;;23.97;23.65;98210.97;5024500;28;20131;-77
2021/05/24 10:57:14;;;;;;;8.77;2.03;;;;;;;22.99;24.96;98212.94;5059686;28;20083;-78
2021/05/24 10:59:41;;;;;;;11.40;1.73;;;;;;;25.12;23.21;98219.50;5048957;28;20090;-77
2021/05/24 11:02:09;;;;;;;7.25;1.48;;;;;;;27.04;19.75;98228.19;5056362;28;20098;-78
2021/05/24 11:04:56;;;;;;;6.95;2.05;;;;;;;30.92;16.09;98235.16;5060076;28;20049;-78
2021/05/24 11:07:29;;;;;;;9.80;1.73;;;;;;;30.99;14.62;98221.78;5014309;28;20456;-79
2021/05/24 11:10:14;;;;;;;4.85;1.40;;;;;;;28.33;18.13;98226.72;5043802;28;20048;-79
2021/05/24 11:13:05;;;;;;;4.93;1.80;;;;;;;26.82;19.10;98229.41;5065978;28;20102;-78
2021/05/24 11:15:34;;;;;;;4.75;1.40;;;;;;;26.14;20.67;98227.97;5068025;28;21118;-83
2021/05/24 11:18:04;;;;;;;5.78;1.70;;;;;;;25.34;21.49;98228.25;5066395;28;20045;-83
2021/05/24 11:21:01;;;;;;;4.85;1.67;;;;;;;23.59;23.81;98240.91;5051540;28;20155;-80
2021/05/24 11:23:48;;;;;;;5.13;1.40;;;;;;;22.28;26.78;98231.97;5063415;28;20041;-77
2021/05/24 11:29:11;;;;;;;6.40;2.20;;;;;;;21.20;30.24;98229.56;5046400;28;20049;-80
2021/05/24 11:31:41;;;;;;;10.52;2.15;;;;;;;20.91;32.06;98230.00;5047585;28;20068;-79
2021/05/24 11:34:19;;;;;;;10.30;1.80;;;;;;;20.87;32.57;98235.50;5064268;28;20040;-81
2021/05/24 11:36:46;;;;;;;11.60;2.03;;;;;;;21.41;32.73;98236.91;5059665;28;20045;-77
2021/05/24 11:39:20;;;;;;;9.43;1.95;;;;;;;22.01;33.12;98237.63;5023600;28;20048;-75
2021/05/24 11:42:24;;;;;;;7.32;1.70;;;;;;;22.34;30.90;98242.16;5030123;28;20194;-78
2021/05/24 11:44:52;;;;;;;10.07;2.28;;;;;;;24.29;25.95;98248.28;5030584;28;20099;-79
2021/05/24 11:47:23;;;;;;;4.20;1.48;;;;;;;24.65;26.09;98249.56;5042753;28;20045;-80
2021/05/24 11:49:59;;;;;;;9.93;1.98;;;;;;;24.32;26.33;98243.50;5025483;28;20045;-78
2021/05/24 11:52:33;;;;;;;5.35;2.00;;;;;;;24.58;24.96;98243.91;5031305;28;20075;-82
2021/05/24 11:55:10;;;;;;;7.85;2.15;;;;;;;24.00;26.08;98248.06;5048488;28;20384;-82
2021/05/24 11:57:39;;;;;;;5.93;1.80;;;;;;;23.89;25.32;98248.13;5044188;28;20158;-79
2021/05/24 12:00:10;;;;;;;6.85;1.83;;;;;;;23.56;25.08;98257.13;5043137;28;20053;-78
2021/05/24 12:02:39;;;;;;;13.23;2.50;;;;;;;23.32;25.43;98253.78;5035849;28;20207;-77
2021/05/24 12:05:08;;;;;;;10.95;2.13;;;;;;;21.79;27.60;98250.81;5046512;28;20655;-79
2021/05/24 12:07:36;;;;;;;6.50;1.63;;;;;;;21.68;26.70;98251.63;5055642;28;20047;-76
2021/05/24 12:10:06;;;;;;;3.50;1.25;;;;;;;21.67;27.98;98254.44;5061427;28;20392;-79
2021/05/24 12:12:39;;;;;;;7.47;2.00;;;;;;;21.43;27.56;98257.09;5056315;28;20162;-79
2021/05/24 12:15:17;;;;;;;8.48;1.70;;;;;;;21.71;27.81;98263.84;5060960;28;20048;-79
2021/05/24 12:17:52;;;;;;;10.85;2.03;;;;;;;21.42;27.82;98257.22;5062028;28;20048;-79
2021/05/24 12:20:22;;;;;;;7.75;1.77;;;;;;;20.58;28.67;98252.66;5058001;28;20159;-79
2021/05/24 12:22:52;;;;;;;6.70;1.80;;;;;;;19.99;30.47;98260.31;5056103;28;20052;-79
2021/05/24 12:25:20;;;;;;;8.57;1.90;;;;;;;19.74;31.32;98262.06;5062816;28;20049;-79
2021/05/24 12:27:51;;;;;;;7.80;1.73;;;;;;;19.57;31.98;98258.72;5059774;28;20136;-81
2021/05/24 12:30:20;;;;;;;13.82;2.15;;;;;;;20.13;30.34;98258.50;5061119;28;20072;-83
2021/05/24 12:33:08;;;;;;;6.53;1.63;;;;;;;20.34;30.83;98260.53;5064705;28;20075;-80
2021/05/24 12:35:38;;;;;;;11.05;2.08;;;;;;;19.47;33.04;98278.00;5042069;28;20155;-80
2021/05/24 12:38:20;;;;;;;6.45;1.60;;;;;;;17.94;37.81;98259.41;5058043;28;20055;-78
2021/05/24 12:40:58;;;;;;;7.88;2.13;;;;;;;17.04;40.81;98271.69;5085255;28;20384;-82
2021/05/24 12:43:52;;;;;;;13.18;2.13;;;;;;;16.08;43.09;98268.13;5022975;28;20067;-80
2021/05/24 12:46:20;;;;;;;13.32;1.60;;;;;;;16.38;42.61;98274.41;5057372;28;20052;-78
2021/05/24 12:49:33;;;;;;;8.10;1.60;;;;;;;16.81;42.24;98280.91;5052223;28;20104;-86
2021/05/24 12:52:02;;;;;;;10.23;2.03;;;;;;;16.73;41.03;98290.16;4960070;28;20070;-80
2021/05/24 12:58:39;;;;;;;6.15;1.98;;;;;;;17.20;40.02;98298.94;4969349;28;20081;-81
2021/05/24 13:01:11;;;;;;;5.85;1.45;;;;;;;17.42;39.23;98299.41;4962662;28;20117;-80
2021/05/24 13:03:44;;;;;;;9.57;1.67;;;;;;;17.10;40.52;98305.66;4985270;28;20241;-82
2021/05/24 13:06:16;;;;;;;8.88;2.00;;;;;;;17.07;40.42;98307.63;4995710;28;20050;-82
2021/05/24 13:09:04;;;;;;;11.43;2.58;;;;;;;17.27;40.38;98313.47;5003502;28;20064;-84
2021/05/24 13:12:11;;;;;;;10.38;2.42;;;;;;;18.07;39.25;98315.88;4970409;28;20063;-79
2021/05/24 13:14:40;;;;;;;6.07;1.85;;;;;;;18.51;38.51;98321.09;4981294;28;20047;-79
2021/05/24 13:17:45;;;;;;;5.27;1.83;;;;;;;18.38;40.13;98329.88;4993720;28;20436;-80
2021/05/24 13:28:50;;;;;;;9.25;1.30;;;;;;;18.08;40.63;98346.63;5057105;28;20049;-79
2021/05/24 13:31:40;;;;;;;8.50;1.60;;;;;;;18.09;40.63;98343.06;5026548;28;20052;-76
2021/05/24 13:34:10;;;;;;;9.05;1.60;;;;;;;17.42;41.33;98354.84;5042448;28;20479;-79